Terminal Aerodrome Forecast
Issued by NWS

Home | Current Version | Previous Version | Text Only | Print | Product List | Glossary On
Versions: 1 2 3 4 5 6 7 8 9 10 11 12
554
FTUS46 KLOX 181739
TAFOXR
TAF
KOXR 181739Z 1818/1918 23003KT P6SM SKC
     FM181900 27012KT P6SM SCT200
     FM190300 VRB03KT P6SM SKC
     FM191000 VRB03KT 1SM BR BKN003=

USA.gov is the U.S. government's official web portal to all federal, state and local government web resources and services.